createdAt,value
2022-11-14T00:00:45.884Z,38.20
2022-11-14T00:03:14.237Z,40.73
2022-11-14T00:05:43.499Z,37.10
2022-11-14T00:08:16.437Z,37.10
2022-11-14T00:10:46.038Z,35.80
2022-11-14T00:13:14.463Z,39.00
2022-11-14T00:15:43.976Z,43.30
2022-11-14T00:18:12.109Z,38.30
2022-11-14T00:20:40.161Z,38.27
2022-11-14T00:23:08.287Z,39.17
2022-11-14T00:25:36.357Z,38.50
2022-11-14T00:28:04.561Z,34.07
2022-11-14T00:30:32.723Z,31.20
2022-11-14T00:33:02.373Z,34.57
2022-11-14T00:35:30.449Z,30.77
2022-11-14T00:37:58.686Z,32.50
2022-11-14T00:40:29.602Z,35.17
2022-11-14T00:42:57.688Z,31.70
2022-11-14T00:45:25.833Z,33.50
2022-11-14T00:47:53.957Z,35.50
2022-11-14T00:50:23.630Z,36.33
2022-11-14T00:52:51.754Z,36.97
2022-11-14T00:55:19.800Z,36.63
2022-11-14T00:57:47.920Z,33.93
2022-11-14T01:00:16.340Z,34.17
2022-11-14T01:02:44.501Z,33.97
2022-11-14T01:05:12.623Z,32.50
2022-11-14T01:07:42.105Z,33.87
2022-11-14T01:10:11.203Z,33.13
2022-11-14T01:12:39.341Z,34.50
2022-11-14T01:15:08.330Z,32.77
2022-11-14T01:17:36.458Z,34.63
2022-11-14T01:20:05.005Z,29.90
2022-11-14T01:22:33.157Z,34.57
2022-11-14T01:25:02.588Z,30.37
2022-11-14T01:27:32.057Z,32.00
2022-11-14T01:30:00.133Z,32.60
2022-11-14T01:32:28.412Z,34.80
2022-11-14T01:34:56.533Z,34.23
2022-11-14T01:37:24.549Z,32.43
2022-11-14T01:39:52.713Z,33.23
2022-11-14T01:42:26.030Z,30.90
2022-11-14T01:44:55.580Z,34.60
2022-11-14T01:47:25.112Z,30.20
2022-11-14T01:49:54.796Z,33.90
2022-11-14T01:52:24.321Z,36.93
2022-11-14T01:54:53.874Z,31.30
2022-11-14T01:57:25.499Z,33.47
2022-11-14T01:59:54.705Z,32.00
2022-11-14T02:02:25.079Z,30.87
2022-11-14T02:04:54.908Z,33.20
2022-11-14T02:07:23.078Z,36.23
2022-11-14T02:09:51.210Z,32.60
2022-11-14T02:12:19.616Z,33.73
2022-11-14T02:14:50.994Z,37.10
2022-11-14T02:17:34.763Z,42.00
2022-11-14T02:20:16.387Z,33.60
2022-11-14T02:22:44.539Z,34.13
2022-11-14T02:25:12.862Z,34.23
2022-11-14T02:27:41.021Z,36.23
2022-11-14T02:30:11.187Z,38.90
2022-11-14T02:33:08.798Z,36.20
2022-11-14T02:35:28.777Z,38.07
2022-11-14T02:37:56.944Z,30.80
2022-11-14T02:40:24.952Z,35.60
2022-11-14T02:42:53.089Z,41.97
2022-11-14T02:45:21.515Z,35.37
2022-11-14T02:47:49.624Z,37.80
2022-11-14T02:50:18.333Z,31.40
2022-11-14T02:52:47.827Z,42.20
2022-11-14T02:55:16.055Z,37.23
2022-11-14T02:57:44.168Z,35.27
2022-11-14T03:00:15.206Z,36.73
2022-11-14T03:02:43.626Z,32.30
2022-11-14T03:05:11.644Z,35.93
2022-11-14T03:07:39.708Z,31.77
2022-11-14T03:10:10.156Z,32.07
2022-11-14T03:12:38.501Z,39.27
2022-11-14T03:15:07.416Z,33.77
2022-11-14T03:17:35.867Z,35.37
2022-11-14T03:20:04.170Z,37.13
2022-11-14T03:22:32.349Z,36.87
2022-11-14T03:25:00.429Z,35.93
2022-11-14T03:27:29.967Z,34.77
2022-11-14T03:29:59.199Z,34.30
2022-11-14T03:32:27.349Z,33.97
2022-11-14T03:34:55.410Z,32.53
2022-11-14T03:37:23.564Z,33.63
2022-11-14T03:39:51.585Z,34.27
2022-11-14T03:42:19.721Z,33.40
2022-11-14T03:44:49.150Z,28.93
2022-11-14T03:47:17.213Z,29.33
2022-11-14T03:49:45.787Z,28.80
2022-11-14T03:52:13.838Z,28.17
2022-11-14T03:54:41.928Z,32.40
2022-11-14T03:57:10.083Z,28.67
2022-11-14T03:59:38.152Z,26.87
2022-11-14T04:02:07.596Z,28.50
2022-11-14T04:04:35.945Z,23.50
2022-11-14T04:07:04.068Z,28.13
2022-11-14T04:09:32.220Z,23.70
2022-11-14T04:12:00.301Z,25.53
2022-11-14T04:14:28.473Z,23.73
2022-11-14T04:16:56.623Z,24.57
2022-11-14T04:19:26.095Z,23.67
2022-11-14T04:21:54.174Z,25.80
2022-11-14T04:24:22.289Z,28.43
2022-11-14T04:26:50.319Z,26.43
2022-11-14T04:29:18.455Z,25.20
2022-11-14T04:31:46.490Z,23.03
2022-11-14T04:34:14.588Z,25.10
2022-11-14T04:36:44.027Z,24.93
2022-11-14T04:39:12.152Z,24.47
2022-11-14T04:41:40.356Z,25.87
2022-11-14T04:44:08.605Z,24.17
2022-11-14T04:46:36.715Z,28.13
2022-11-14T04:49:04.891Z,26.80
2022-11-14T04:51:32.932Z,29.97
2022-11-14T04:54:02.401Z,27.80
2022-11-14T04:56:30.497Z,23.10
2022-11-14T04:58:58.728Z,23.43
2022-11-14T05:01:26.878Z,23.03
2022-11-14T05:03:55.283Z,23.90
2022-11-14T05:06:23.326Z,22.03
2022-11-14T05:08:51.451Z,23.77
2022-11-14T05:11:25.259Z,22.87
2022-11-14T05:13:56.246Z,25.50
2022-11-14T05:16:24.343Z,22.90
2022-11-14T05:18:54.452Z,24.60
2022-11-14T05:21:22.518Z,25.63
2022-11-14T05:23:50.621Z,25.90
2022-11-14T05:26:20.513Z,22.50
2022-11-14T05:28:48.600Z,19.90
2022-11-14T05:31:17.987Z,19.43
2022-11-14T05:33:46.751Z,22.13
2022-11-14T05:36:16.052Z,24.30
2022-11-14T05:38:44.642Z,25.67
2022-11-14T05:41:13.656Z,24.33
2022-11-14T05:43:43.179Z,23.43
2022-11-14T05:46:11.857Z,23.47
2022-11-14T05:48:40.012Z,22.40
2022-11-14T05:51:08.591Z,23.87
2022-11-14T05:53:36.860Z,20.27
2022-11-14T05:56:05.475Z,22.00
2022-11-14T05:58:33.719Z,22.03
2022-11-14T06:01:06.854Z,25.10
2022-11-14T06:03:35.620Z,20.10
2022-11-14T06:06:03.863Z,21.83
2022-11-14T06:08:32.395Z,22.23
2022-11-14T06:11:03.558Z,23.57
2022-11-14T06:13:31.864Z,25.57
2022-11-14T06:16:01.589Z,11.00
2022-11-14T06:18:31.554Z,21.90
2022-11-14T06:21:00.942Z,26.03
2022-11-14T06:23:29.177Z,21.33
2022-11-14T06:26:00.792Z,21.00
2022-11-14T06:28:29.317Z,19.97
2022-11-14T06:31:00.898Z,20.93
2022-11-14T06:33:30.973Z,20.70
2022-11-14T06:36:00.222Z,20.53
2022-11-14T06:38:28.766Z,21.23
2022-11-14T06:41:03.678Z,20.87
2022-11-14T06:43:34.266Z,24.33
2022-11-14T06:46:02.478Z,21.30
2022-11-14T06:48:32.308Z,23.03
2022-11-14T06:51:00.685Z,17.77
2022-11-14T06:53:29.890Z,19.57
2022-11-14T06:55:58.316Z,20.23
2022-11-14T06:58:27.937Z,20.43
2022-11-14T07:00:56.718Z,21.87
2022-11-14T07:03:24.942Z,24.33
2022-11-14T07:05:54.514Z,21.57
2022-11-14T07:08:22.673Z,21.53
2022-11-14T07:10:50.734Z,20.70
2022-11-14T07:13:18.837Z,26.23
2022-11-14T07:15:52.122Z,23.10
2022-11-14T07:18:20.464Z,22.47
2022-11-14T07:20:48.677Z,21.93
2022-11-14T07:23:22.716Z,20.93
2022-11-14T07:25:51.197Z,21.63
2022-11-14T07:28:19.245Z,22.03
2022-11-14T07:30:47.293Z,24.13
2022-11-14T07:33:15.954Z,21.93
2022-11-14T07:35:43.987Z,22.60
2022-11-14T07:38:12.123Z,23.07
2022-11-14T07:40:41.622Z,22.33
2022-11-14T07:43:09.721Z,19.80
2022-11-14T07:45:37.836Z,23.30
2022-11-14T07:48:06.351Z,21.00
2022-11-14T07:50:34.426Z,23.23
2022-11-14T07:53:02.616Z,21.30
2022-11-14T07:55:30.718Z,21.47
2022-11-14T07:58:02.173Z,22.67
2022-11-14T08:00:30.411Z,23.77
2022-11-14T08:02:58.507Z,23.13
2022-11-14T08:05:26.608Z,23.37
2022-11-14T08:07:55.010Z,21.97
2022-11-14T08:10:23.453Z,23.30
2022-11-14T08:13:17.478Z,23.43
2022-11-14T08:15:48.880Z,20.97
2022-11-14T08:18:17.137Z,22.30
2022-11-14T08:20:45.330Z,21.17
2022-11-14T08:23:13.729Z,22.03
2022-11-14T08:25:42.118Z,22.50
2022-11-14T08:28:10.329Z,21.00
2022-11-14T08:30:38.392Z,23.80
2022-11-14T08:33:08.141Z,21.80
2022-11-14T08:35:36.219Z,22.53
2022-11-14T08:38:04.423Z,23.10
2022-11-14T08:40:33.061Z,21.27
2022-11-14T08:43:02.218Z,22.67
2022-11-14T08:45:30.412Z,21.90
2022-11-14T08:47:58.509Z,24.93
2022-11-14T08:50:27.962Z,24.97
2022-11-14T08:52:56.114Z,23.90
2022-11-14T08:55:24.238Z,23.47
2022-11-14T08:57:52.312Z,23.73
2022-11-14T09:00:21.015Z,22.97
2022-11-14T09:02:49.328Z,24.47
2022-11-14T09:05:17.588Z,23.87
2022-11-14T09:07:47.261Z,23.30
2022-11-14T09:10:16.095Z,21.97
2022-11-14T09:12:44.355Z,21.07
2022-11-14T09:15:12.943Z,21.50
2022-11-14T09:17:41.099Z,20.47
2022-11-14T09:20:09.904Z,22.03
2022-11-14T09:22:38.126Z,20.03
2022-11-14T09:25:09.100Z,21.13
2022-11-14T09:27:37.314Z,22.03
2022-11-14T09:30:06.196Z,21.93
2022-11-14T09:32:34.408Z,19.27
2022-11-14T09:35:02.456Z,20.70
2022-11-14T09:37:30.631Z,20.17
2022-11-14T09:39:58.839Z,21.20
2022-11-14T09:42:51.047Z,20.77
2022-11-14T09:45:19.327Z,20.97
2022-11-14T09:47:49.623Z,22.37
2022-11-14T09:50:24.410Z,20.83
2022-11-14T09:52:55.235Z,21.40
2022-11-14T09:55:24.085Z,22.37
2022-11-14T09:57:53.644Z,23.50
2022-11-14T10:00:22.763Z,23.73
2022-11-14T10:03:00.651Z,21.87
2022-11-14T10:05:43.883Z,22.70
2022-11-14T10:08:22.044Z,21.33
2022-11-14T10:10:53.158Z,22.40
2022-11-14T10:13:39.466Z,21.37
2022-11-14T10:16:12.124Z,21.73
2022-11-14T10:18:55.854Z,20.83
2022-11-14T10:21:34.387Z,20.40
2022-11-14T10:24:06.111Z,19.10
2022-11-14T10:26:34.852Z,21.63
2022-11-14T10:29:30.979Z,21.60
2022-11-14T10:32:01.482Z,21.77
2022-11-14T10:34:31.745Z,22.63
2022-11-14T10:37:03.428Z,23.93
2022-11-14T10:39:32.843Z,21.80
2022-11-14T10:42:07.619Z,21.63
2022-11-14T10:44:41.078Z,23.03
2022-11-14T10:47:13.090Z,21.93
2022-11-14T10:49:41.251Z,20.87
2022-11-14T10:52:13.622Z,20.93
2022-11-14T10:54:43.564Z,19.83
2022-11-14T10:57:16.446Z,22.97
2022-11-14T10:59:45.995Z,21.87
2022-11-14T11:02:14.216Z,21.73
2022-11-14T11:04:42.639Z,24.43
2022-11-14T11:07:36.151Z,24.10
2022-11-14T11:10:22.027Z,22.17
2022-11-14T11:12:51.116Z,22.70
2022-11-14T11:15:22.274Z,23.33
2022-11-14T11:17:55.864Z,25.03
2022-11-14T11:20:27.411Z,24.60
2022-11-14T11:23:03.706Z,23.60
2022-11-14T11:25:33.042Z,23.70
2022-11-14T11:28:13.752Z,23.73
2022-11-14T11:30:55.359Z,26.37
2022-11-14T11:33:24.997Z,26.50
2022-11-14T11:35:55.238Z,26.57
2022-11-14T11:38:23.692Z,25.97
2022-11-14T11:40:53.154Z,25.90
2022-11-14T11:43:43.131Z,27.70
2022-11-14T11:46:17.203Z,28.50
2022-11-14T11:48:45.788Z,27.50
2022-11-14T11:51:15.360Z,27.20
2022-11-14T11:53:45.340Z,25.20
2022-11-14T11:56:14.133Z,25.63
2022-11-14T11:58:44.862Z,25.90
2022-11-14T12:01:14.512Z,24.53
2022-11-14T12:03:43.956Z,23.37
2022-11-14T12:06:15.733Z,26.00
2022-11-14T12:08:49.041Z,24.93
2022-11-14T12:11:19.019Z,24.63
2022-11-14T12:14:26.148Z,24.10
2022-11-14T12:17:13.921Z,24.57
2022-11-14T12:19:49.808Z,27.37
2022-11-14T12:22:39.402Z,27.97
2022-11-14T12:25:27.677Z,31.00
2022-11-14T12:28:04.450Z,30.33
2022-11-14T12:30:32.852Z,27.23
2022-11-14T12:33:03.297Z,26.73
2022-11-14T12:35:32.546Z,24.93
2022-11-14T12:38:01.001Z,24.03
2022-11-14T12:40:30.495Z,25.30
2022-11-14T12:42:58.732Z,24.80
2022-11-14T12:45:57.643Z,24.97
2022-11-14T12:48:35.379Z,25.73
2022-11-14T12:51:04.005Z,26.07
2022-11-14T12:53:42.315Z,25.83
2022-11-14T12:56:31.581Z,26.03
2022-11-14T12:59:23.312Z,26.60
2022-11-14T13:01:59.136Z,25.83
2022-11-14T13:04:34.758Z,25.63
2022-11-14T13:07:15.357Z,28.13
2022-11-14T13:09:55.833Z,30.13
2022-11-14T13:12:48.720Z,29.90
2022-11-14T13:15:48.605Z,29.90
2022-11-14T13:18:39.605Z,29.80
2022-11-14T13:21:38.611Z,30.07
2022-11-14T13:24:09.280Z,28.93
2022-11-14T13:26:52.498Z,29.10
2022-11-14T13:30:00.094Z,28.73
2022-11-14T13:33:05.085Z,26.13
2022-11-14T13:35:53.088Z,28.83
2022-11-14T13:39:03.289Z,29.67
2022-11-14T13:41:53.289Z,28.27
2022-11-14T13:44:38.175Z,27.07
2022-11-14T13:47:14.590Z,28.87
2022-11-14T13:49:58.475Z,29.77
2022-11-14T13:52:27.143Z,29.47
2022-11-14T13:54:55.181Z,27.93
2022-11-14T13:57:28.289Z,27.97
2022-11-14T14:00:02.180Z,28.93
2022-11-14T14:02:46.202Z,27.60
2022-11-14T14:05:28.253Z,29.30
2022-11-14T14:08:06.492Z,28.83
2022-11-14T14:10:37.153Z,28.73
2022-11-14T14:13:15.240Z,27.23
2022-11-14T14:15:46.791Z,28.33
2022-11-14T14:18:22.305Z,28.43
2022-11-14T14:20:53.779Z,29.73
2022-11-14T14:23:27.526Z,27.63
2022-11-14T14:26:00.063Z,28.00
2022-11-14T14:28:36.504Z,29.43
2022-11-14T14:31:06.105Z,29.53
2022-11-14T14:33:41.688Z,29.33
2022-11-14T14:36:20.411Z,31.17
2022-11-14T14:38:48.715Z,30.47
2022-11-14T14:41:18.294Z,30.87
2022-11-14T14:43:53.309Z,30.07
2022-11-14T14:46:31.836Z,30.33
2022-11-14T14:49:00.281Z,28.97
2022-11-14T14:51:32.483Z,31.00
2022-11-14T14:54:00.590Z,31.60
2022-11-14T14:56:29.026Z,30.93
2022-11-14T14:58:58.582Z,31.13
2022-11-14T15:01:29.622Z,34.70
2022-11-14T15:03:59.149Z,32.93
2022-11-14T15:06:31.298Z,32.50
2022-11-14T15:08:59.461Z,30.87
2022-11-14T15:11:32.347Z,30.67
2022-11-14T15:14:02.646Z,31.33
2022-11-14T15:16:30.858Z,32.13
2022-11-14T15:18:58.974Z,30.80
2022-11-14T15:21:28.541Z,31.43
2022-11-14T15:24:00.566Z,32.67
2022-11-14T15:26:28.714Z,32.47
2022-11-14T15:29:06.719Z,33.30
2022-11-14T15:31:35.126Z,34.60
2022-11-14T15:34:04.992Z,33.43
2022-11-14T15:36:33.255Z,34.83
2022-11-14T15:39:02.860Z,34.43
2022-11-14T15:41:31.531Z,33.57
2022-11-14T15:44:05.794Z,32.93
2022-11-14T15:46:46.939Z,33.63
2022-11-14T15:49:22.463Z,34.13
2022-11-14T15:51:52.103Z,35.67
2022-11-14T15:54:27.994Z,32.13
2022-11-14T15:56:57.059Z,34.77
2022-11-14T15:59:25.198Z,34.90
2022-11-14T16:01:57.792Z,32.90
2022-11-14T16:04:27.450Z,33.00
2022-11-14T16:06:55.681Z,33.27
2022-11-14T16:09:23.793Z,31.57
2022-11-14T16:11:52.070Z,33.07
2022-11-14T16:14:20.160Z,32.13
2022-11-14T16:16:48.195Z,30.47
2022-11-14T16:19:18.021Z,34.27
2022-11-14T16:21:46.187Z,33.20
2022-11-14T16:24:17.176Z,34.67
2022-11-14T16:26:45.509Z,32.63
2022-11-14T16:29:13.623Z,34.37
2022-11-14T16:31:41.811Z,33.57
2022-11-14T16:34:13.617Z,31.57
2022-11-14T16:36:45.310Z,29.50
2022-11-14T16:39:13.725Z,28.23
2022-11-14T16:41:41.870Z,28.63
2022-11-14T16:44:13.973Z,28.07
2022-11-14T16:46:42.102Z,28.43
2022-11-14T16:49:12.507Z,28.43
2022-11-14T16:51:50.495Z,29.33
2022-11-14T16:54:20.986Z,30.47
2022-11-14T16:56:49.132Z,29.97
2022-11-14T16:59:17.294Z,29.50
2022-11-14T17:01:46.136Z,33.07
2022-11-14T17:04:14.321Z,31.80
2022-11-14T17:06:43.918Z,30.83
2022-11-14T17:09:13.337Z,32.57
2022-11-14T17:11:41.623Z,32.33
2022-11-14T17:14:09.764Z,31.97
2022-11-14T17:16:38.098Z,33.63
2022-11-14T17:19:06.291Z,33.43
2022-11-14T17:21:34.446Z,33.70
2022-11-14T17:24:03.973Z,34.60
2022-11-14T17:26:32.113Z,34.83
2022-11-14T17:29:00.321Z,35.37
2022-11-14T17:31:29.837Z,34.20
2022-11-14T17:34:01.228Z,35.10
2022-11-14T17:36:30.126Z,34.90
2022-11-14T17:38:58.688Z,34.83
2022-11-14T17:41:29.130Z,35.80
2022-11-14T17:43:59.059Z,34.03
2022-11-14T17:46:27.152Z,34.07
2022-11-14T17:48:55.352Z,33.37
2022-11-14T17:51:23.515Z,33.23
2022-11-14T17:53:51.588Z,32.90
2022-11-14T17:56:21.266Z,34.37
2022-11-14T17:58:51.530Z,35.97
2022-11-14T18:01:21.346Z,35.93
2022-11-14T18:03:49.593Z,33.83
2022-11-14T18:06:19.226Z,37.17
2022-11-14T18:08:47.602Z,38.73
2022-11-14T18:11:16.623Z,38.50
2022-11-14T18:13:44.864Z,38.50
2022-11-14T18:16:14.956Z,39.70
2022-11-14T18:18:43.095Z,41.13
2022-11-14T18:21:11.414Z,39.80
2022-11-14T18:23:39.851Z,36.17
2022-11-14T18:26:11.838Z,38.30
2022-11-14T18:28:39.994Z,40.07
2022-11-14T18:31:10.838Z,39.60
2022-11-14T18:33:40.913Z,39.87
2022-11-14T18:36:11.518Z,37.30
2022-11-14T18:38:39.658Z,39.80
2022-11-14T18:41:09.176Z,37.17
2022-11-14T18:43:37.362Z,38.37
2022-11-14T18:46:06.912Z,39.07
2022-11-14T18:48:35.339Z,39.27
2022-11-14T18:51:05.074Z,43.07
2022-11-14T18:53:33.762Z,38.53
2022-11-14T18:56:05.018Z,42.40
2022-11-14T18:58:33.276Z,42.13
2022-11-14T19:01:08.807Z,40.07
2022-11-14T19:03:36.946Z,41.87
2022-11-14T19:06:06.783Z,38.03
2022-11-14T19:08:34.907Z,39.00
2022-11-14T19:11:03.046Z,41.97
2022-11-14T19:13:31.397Z,44.00
2022-11-14T19:16:02.846Z,48.07
2022-11-14T19:18:31.454Z,53.40
2022-11-14T19:21:00.101Z,46.73
2022-11-14T19:23:30.229Z,44.07
2022-11-14T19:26:00.788Z,47.93
2022-11-14T19:28:29.370Z,39.87
2022-11-14T19:31:02.118Z,42.77
2022-11-14T19:33:30.741Z,41.57
2022-11-14T19:35:59.129Z,46.13
2022-11-14T19:38:27.410Z,41.93
2022-11-14T19:41:00.812Z,38.93
2022-11-14T19:43:32.080Z,40.60
2022-11-14T19:46:02.315Z,42.87
2022-11-14T19:48:30.646Z,42.10
2022-11-14T19:51:02.879Z,41.93
2022-11-14T19:53:31.627Z,45.07
2022-11-14T19:56:01.963Z,39.00
2022-11-14T19:58:30.354Z,46.23
2022-11-14T20:01:02.571Z,40.10
2022-11-14T20:03:31.109Z,44.93
2022-11-14T20:06:00.928Z,44.30
2022-11-14T20:08:29.271Z,41.37
2022-11-14T20:10:58.849Z,50.53
2022-11-14T20:13:30.750Z,40.17
2022-11-14T20:16:00.081Z,51.83
2022-11-14T20:18:30.078Z,47.73
2022-11-14T20:20:58.587Z,47.27
2022-11-14T20:23:27.806Z,50.30
2022-11-14T20:25:57.277Z,56.37
2022-11-14T20:28:25.648Z,52.80
2022-11-14T20:30:55.343Z,50.57
2022-11-14T20:33:23.608Z,49.43
2022-11-14T20:35:51.851Z,54.53
2022-11-14T20:38:20.154Z,58.23
2022-11-14T20:40:54.954Z,48.27
2022-11-14T20:43:23.201Z,48.07
2022-11-14T20:45:59.798Z,44.63
2022-11-14T20:48:28.462Z,40.70
2022-11-14T20:51:03.670Z,37.13
2022-11-14T20:53:32.290Z,43.07
2022-11-14T20:56:01.031Z,43.33
2022-11-14T20:58:29.467Z,44.87
2022-11-14T21:00:59.099Z,46.73
2022-11-14T21:03:27.730Z,37.70
2022-11-14T21:05:56.201Z,41.03
2022-11-14T21:08:24.347Z,35.73
2022-11-14T21:10:57.560Z,39.93
2022-11-14T21:13:43.113Z,41.83
2022-11-14T21:16:13.525Z,44.87
2022-11-14T21:18:43.944Z,43.07
2022-11-14T21:21:17.041Z,40.50
2022-11-14T21:23:45.264Z,37.13
2022-11-14T21:26:14.127Z,38.43
2022-11-14T21:28:43.101Z,38.30
2022-11-14T21:31:17.020Z,38.50
2022-11-14T21:33:45.288Z,36.13
2022-11-14T21:36:43.197Z,38.07
2022-11-14T21:39:02.410Z,48.20
2022-11-14T21:41:31.042Z,40.03
2022-11-14T21:43:59.970Z,39.70
2022-11-14T21:46:29.495Z,37.97
2022-11-14T21:48:57.728Z,34.03
2022-11-14T21:51:26.575Z,34.93
2022-11-14T21:53:55.383Z,37.43
2022-11-14T21:56:24.414Z,34.20
2022-11-14T21:59:12.516Z,37.30
2022-11-14T22:02:00.157Z,36.03
2022-11-14T22:04:28.526Z,38.53
2022-11-14T22:06:56.633Z,39.90
2022-11-14T22:09:24.912Z,39.23
2022-11-14T22:11:53.013Z,34.10
2022-11-14T22:14:21.262Z,34.73
2022-11-14T22:16:50.753Z,39.23
2022-11-14T22:19:19.065Z,36.90
2022-11-14T22:21:47.296Z,38.63
2022-11-14T22:24:15.476Z,38.13
2022-11-14T22:26:43.586Z,37.30
2022-11-14T22:29:11.763Z,33.07
2022-11-14T22:31:39.883Z,35.30
2022-11-14T22:34:09.367Z,34.37
2022-11-14T22:36:37.504Z,36.27
2022-11-14T22:39:06.059Z,38.83
2022-11-14T22:41:34.217Z,41.33
2022-11-14T22:44:02.446Z,42.27
2022-11-14T22:46:30.538Z,41.67
2022-11-14T22:48:58.822Z,39.97
2022-11-14T22:51:28.760Z,48.20
2022-11-14T22:53:58.322Z,46.93
2022-11-14T22:56:27.412Z,43.57
2022-11-14T22:58:55.612Z,45.10
2022-11-14T23:01:25.131Z,45.20
2022-11-14T23:03:55.057Z,41.60
2022-11-14T23:06:23.240Z,39.90
2022-11-14T23:08:52.829Z,35.43
2022-11-14T23:11:21.861Z,38.27
2022-11-14T23:13:50.655Z,34.83
2022-11-14T23:16:19.426Z,32.17
2022-11-14T23:18:47.558Z,34.57
2022-11-14T23:21:16.715Z,30.47
2022-11-14T23:23:44.839Z,35.90
2022-11-14T23:26:15.279Z,35.07
2022-11-14T23:28:43.592Z,35.50
2022-11-14T23:31:12.121Z,33.60
2022-11-14T23:33:40.333Z,30.10
2022-11-14T23:36:08.781Z,35.53
2022-11-14T23:38:36.972Z,35.80
2022-11-14T23:41:05.232Z,32.90
2022-11-14T23:43:35.031Z,39.83
2022-11-14T23:46:03.180Z,38.90
2022-11-14T23:48:31.270Z,36.90
2022-11-14T23:50:59.343Z,37.27
2022-11-14T23:53:27.491Z,34.57
2022-11-14T23:55:55.768Z,25.20
2022-11-14T23:58:24.177Z,35.20
